createdAt,value
2023-03-16T00:02:07.716Z,4.57
2023-03-16T00:04:38.165Z,5.20
2023-03-16T00:07:10.265Z,5.25
2023-03-16T00:09:41.469Z,5.60
2023-03-16T00:12:18.058Z,5.07
2023-03-16T00:14:47.338Z,6.20
2023-03-16T00:17:19.435Z,6.20
2023-03-16T00:19:55.444Z,5.97
2023-03-16T00:22:29.751Z,7.05
2023-03-16T00:24:57.539Z,5.35
2023-03-16T00:27:26.592Z,5.22
2023-03-16T00:29:57.316Z,5.00
2023-03-16T00:32:28.561Z,5.15
2023-03-16T00:34:56.097Z,4.00
2023-03-16T00:37:24.833Z,1.45
2023-03-16T00:39:53.005Z,2.08
2023-03-16T00:42:20.651Z,1.33
2023-03-16T00:44:47.879Z,1.67
2023-03-16T00:47:15.136Z,2.97
2023-03-16T00:49:44.532Z,1.58
2023-03-16T00:52:15.960Z,1.45
2023-03-16T00:54:45.234Z,1.20
2023-03-16T00:57:14.674Z,1.20
2023-03-16T00:59:42.438Z,1.70
2023-03-16T01:02:11.576Z,1.42
2023-03-16T01:04:40.310Z,1.93
2023-03-16T01:07:09.201Z,1.23
2023-03-16T01:09:37.265Z,1.30
2023-03-16T01:12:09.668Z,1.90
2023-03-16T01:14:37.128Z,1.43
2023-03-16T01:17:08.637Z,1.42
2023-03-16T01:19:37.281Z,2.15
2023-03-16T01:22:09.977Z,1.90
2023-03-16T01:24:38.964Z,1.87
2023-03-16T01:27:09.009Z,2.03
2023-03-16T01:29:36.493Z,1.87
2023-03-16T01:32:04.702Z,2.20
2023-03-16T01:34:32.654Z,1.40
2023-03-16T01:37:01.087Z,2.70
2023-03-16T01:39:40.210Z,1.40
2023-03-16T01:42:08.369Z,2.00
2023-03-16T01:44:57.226Z,1.57
2023-03-16T01:47:29.328Z,1.30
2023-03-16T01:49:57.755Z,1.08
2023-03-16T01:52:34.156Z,1.53
2023-03-16T01:55:06.318Z,1.27
2023-03-16T01:57:37.770Z,1.00
2023-03-16T02:00:20.042Z,0.90
2023-03-16T02:03:09.497Z,1.10
2023-03-16T02:05:49.163Z,2.30
2023-03-16T02:08:18.101Z,3.13
2023-03-16T02:10:46.625Z,3.67
2023-03-16T02:13:14.323Z,2.23
2023-03-16T02:15:41.490Z,3.30
2023-03-16T02:18:09.418Z,3.20
2023-03-16T02:21:01.438Z,1.87
2023-03-16T02:23:29.146Z,1.60
2023-03-16T02:25:59.327Z,3.23
2023-03-16T02:29:06.661Z,3.30
2023-03-16T02:31:34.447Z,3.47
2023-03-16T02:34:02.568Z,1.30
2023-03-16T02:36:31.187Z,1.33
2023-03-16T02:38:58.231Z,1.10
2023-03-16T02:41:26.163Z,1.10
2023-03-16T02:44:29.417Z,0.90
2023-03-16T02:47:00.242Z,0.80
2023-03-16T02:49:44.005Z,0.50
2023-03-16T02:52:12.118Z,0.63
2023-03-16T02:54:39.344Z,0.43
2023-03-16T02:57:06.409Z,0.75
2023-03-16T02:59:34.651Z,0.70
2023-03-16T03:02:01.805Z,0.57
2023-03-16T03:04:28.882Z,0.63
2023-03-16T03:06:55.995Z,0.70
2023-03-16T03:09:23.206Z,0.50
2023-03-16T03:11:53.720Z,1.00
2023-03-16T03:14:21.734Z,0.60
2023-03-16T03:16:50.400Z,0.70
2023-03-16T03:19:17.460Z,0.60
2023-03-16T03:21:45.318Z,0.80
2023-03-16T03:24:13.180Z,0.80
2023-03-16T03:26:40.420Z,0.63
2023-03-16T03:29:12.870Z,0.80
2023-03-16T03:31:40.955Z,0.90
2023-03-16T03:34:08.303Z,0.88
2023-03-16T03:36:35.949Z,1.02
2023-03-16T03:39:07.290Z,0.70
2023-03-16T03:41:35.465Z,1.10
2023-03-16T03:44:05.180Z,1.25
2023-03-16T03:46:34.272Z,0.80
2023-03-16T03:49:04.097Z,0.88
2023-03-16T03:51:34.093Z,0.97
2023-03-16T03:54:14.014Z,1.07
2023-03-16T03:57:04.814Z,1.23
2023-03-16T03:59:32.206Z,1.00
2023-03-16T04:02:09.800Z,1.00
2023-03-16T04:04:43.011Z,0.90
2023-03-16T04:07:12.116Z,0.83
2023-03-16T04:09:40.170Z,0.90
2023-03-16T04:12:09.148Z,0.90
2023-03-16T04:14:36.350Z,0.73
2023-03-16T04:17:07.675Z,0.70
2023-03-16T04:19:37.266Z,0.80
2023-03-16T04:22:09.005Z,0.50
2023-03-16T04:24:36.579Z,0.77
2023-03-16T04:27:03.828Z,0.60
2023-03-16T04:29:32.208Z,0.80
2023-03-16T04:31:59.706Z,0.50
2023-03-16T04:34:28.759Z,0.60
2023-03-16T04:36:59.564Z,0.60
2023-03-16T04:39:26.994Z,0.73
2023-03-16T04:41:54.710Z,0.90
2023-03-16T04:44:26.267Z,0.90
2023-03-16T04:46:53.828Z,0.65
2023-03-16T04:49:22.656Z,1.20
2023-03-16T04:51:49.712Z,1.00
2023-03-16T04:54:19.443Z,0.60
2023-03-16T04:56:48.514Z,0.93
2023-03-16T04:59:38.728Z,0.90
2023-03-16T05:02:20.837Z,0.70
2023-03-16T05:04:49.608Z,0.90
2023-03-16T05:07:17.446Z,0.63
2023-03-16T05:09:49.550Z,0.70
2023-03-16T05:12:17.663Z,0.80
2023-03-16T05:14:46.220Z,0.60
2023-03-16T05:17:34.314Z,0.80
2023-03-16T05:20:01.982Z,0.70
2023-03-16T05:22:29.164Z,0.90
2023-03-16T05:25:21.553Z,0.70
2023-03-16T05:27:57.204Z,0.60
2023-03-16T05:30:31.619Z,0.60
2023-03-16T05:33:03.242Z,0.60
2023-03-16T05:35:31.278Z,0.73
2023-03-16T05:38:03.263Z,0.90
2023-03-16T05:40:33.349Z,0.60
2023-03-16T05:43:16.984Z,0.70
2023-03-16T05:45:50.576Z,0.80
2023-03-16T05:48:21.961Z,0.90
2023-03-16T05:50:54.220Z,0.70
2023-03-16T05:53:29.177Z,0.70
2023-03-16T05:56:03.498Z,0.60
2023-03-16T05:58:34.374Z,0.60
2023-03-16T06:01:07.380Z,0.73
2023-03-16T06:03:34.852Z,0.80
2023-03-16T06:06:02.329Z,0.70
2023-03-16T06:08:34.871Z,1.23
2023-03-16T06:11:10.224Z,1.23
2023-03-16T06:13:39.230Z,0.50
2023-03-16T06:16:07.065Z,1.00
2023-03-16T06:18:36.021Z,1.13
2023-03-16T06:21:04.169Z,1.30
2023-03-16T06:23:34.371Z,2.10
2023-03-16T06:26:04.227Z,1.13
2023-03-16T06:28:34.043Z,1.00
2023-03-16T06:31:01.240Z,1.40
2023-03-16T06:33:32.668Z,1.20
2023-03-16T06:36:00.143Z,1.57
2023-03-16T06:38:32.605Z,1.45
2023-03-16T06:41:06.985Z,1.30
2023-03-16T06:43:35.513Z,1.13
2023-03-16T06:46:03.526Z,1.10
2023-03-16T06:48:31.647Z,1.05
2023-03-16T06:50:58.669Z,1.20
2023-03-16T06:53:28.356Z,0.90
2023-03-16T06:55:56.976Z,0.90
2023-03-16T06:58:26.693Z,1.10
2023-03-16T07:00:54.203Z,1.67
2023-03-16T07:03:22.113Z,1.70
2023-03-16T07:05:55.683Z,1.55
2023-03-16T07:08:23.794Z,1.87
2023-03-16T07:10:52.271Z,1.50
2023-03-16T07:13:19.541Z,2.00
2023-03-16T07:15:46.891Z,2.47
2023-03-16T07:18:15.268Z,5.75
2023-03-16T07:20:42.817Z,1.90
2023-03-16T07:23:11.586Z,2.00
2023-03-16T07:25:40.259Z,1.00
2023-03-16T07:28:07.498Z,3.63
2023-03-16T07:30:41.330Z,1.60
2023-03-16T07:33:10.059Z,2.05
2023-03-16T07:35:37.102Z,2.00
2023-03-16T07:38:04.978Z,2.45
2023-03-16T07:40:34.720Z,1.65
2023-03-16T07:43:10.195Z,2.03
2023-03-16T07:45:50.462Z,1.83
2023-03-16T07:48:20.378Z,2.10
2023-03-16T07:50:54.726Z,2.00
2023-03-16T07:53:23.207Z,1.47
2023-03-16T07:55:54.941Z,2.85
2023-03-16T07:58:22.369Z,2.50
2023-03-16T08:00:50.569Z,3.15
2023-03-16T08:03:19.775Z,2.92
2023-03-16T08:05:47.661Z,1.67
2023-03-16T08:08:17.064Z,1.00
2023-03-16T08:10:44.388Z,0.95
2023-03-16T08:13:15.953Z,1.52
2023-03-16T08:15:49.810Z,2.30
2023-03-16T08:18:27.050Z,2.20
2023-03-16T08:20:55.844Z,2.40
2023-03-16T08:23:24.470Z,2.38
2023-03-16T08:25:54.060Z,1.38
2023-03-16T08:28:22.568Z,1.55
2023-03-16T08:30:53.231Z,1.20
2023-03-16T08:33:36.568Z,2.15
2023-03-16T08:36:09.306Z,2.40
2023-03-16T08:38:36.784Z,1.05
2023-03-16T08:41:08.518Z,2.67
2023-03-16T08:43:37.687Z,2.40
2023-03-16T08:46:05.768Z,1.13
2023-03-16T08:48:44.302Z,1.65
2023-03-16T08:51:11.910Z,1.58
2023-03-16T08:53:39.492Z,1.00
2023-03-16T08:56:09.090Z,1.10
2023-03-16T08:58:36.457Z,2.92
2023-03-16T09:01:05.998Z,0.90
2023-03-16T09:03:35.113Z,2.40
2023-03-16T09:06:07.705Z,1.30
2023-03-16T09:08:34.702Z,1.75
2023-03-16T09:11:13.016Z,1.42
2023-03-16T09:13:40.951Z,1.38
2023-03-16T09:16:12.500Z,1.92
2023-03-16T09:18:40.328Z,2.33
2023-03-16T09:21:10.615Z,3.65
2023-03-16T09:23:42.112Z,2.05
2023-03-16T09:26:09.913Z,2.55
2023-03-16T09:28:39.320Z,2.00
2023-03-16T09:31:07.444Z,1.40
2023-03-16T09:33:35.615Z,1.70
2023-03-16T09:36:03.876Z,2.00
2023-03-16T09:38:32.372Z,2.25
2023-03-16T09:41:08.756Z,1.80
2023-03-16T09:43:52.087Z,1.83
2023-03-16T09:46:32.070Z,1.67
2023-03-16T09:48:59.802Z,1.33
2023-03-16T09:51:52.459Z,1.50
2023-03-16T09:54:45.987Z,2.17
2023-03-16T09:57:38.666Z,1.58
2023-03-16T10:00:18.941Z,3.50
2023-03-16T10:02:59.167Z,3.20
2023-03-16T10:05:27.500Z,3.30
2023-03-16T10:07:54.460Z,1.63
2023-03-16T10:10:31.325Z,3.30
2023-03-16T10:13:01.079Z,1.80
2023-03-16T10:15:33.725Z,2.55
2023-03-16T10:18:12.366Z,1.67
2023-03-16T10:20:42.177Z,2.83
2023-03-16T10:23:20.938Z,1.63
2023-03-16T10:25:49.848Z,1.70
2023-03-16T10:28:28.807Z,1.40
2023-03-16T10:30:58.333Z,1.90
2023-03-16T10:33:33.748Z,1.20
2023-03-16T10:36:42.583Z,2.60
2023-03-16T10:39:13.556Z,2.53
2023-03-16T10:41:44.149Z,2.22
2023-03-16T10:44:23.768Z,1.73
2023-03-16T10:47:05.046Z,3.40
2023-03-16T10:49:47.835Z,3.05
2023-03-16T10:52:30.345Z,2.17
2023-03-16T10:55:00.723Z,2.42
2023-03-16T10:57:33.905Z,2.40
2023-03-16T11:00:13.674Z,2.95
2023-03-16T11:02:40.988Z,2.20
2023-03-16T11:05:40.569Z,2.10
2023-03-16T11:08:24.108Z,4.38
2023-03-16T11:11:00.069Z,1.95
2023-03-16T11:13:35.825Z,2.60
2023-03-16T11:16:30.889Z,2.47
2023-03-16T11:19:04.901Z,2.83
2023-03-16T11:21:55.288Z,3.22
2023-03-16T11:24:33.418Z,3.00
2023-03-16T11:27:04.944Z,2.50
2023-03-16T11:29:45.465Z,2.58
2023-03-16T11:32:16.510Z,2.92
2023-03-16T11:34:44.875Z,2.70
2023-03-16T11:37:48.518Z,4.15
2023-03-16T11:41:00.499Z,3.33
2023-03-16T11:43:39.387Z,3.20
2023-03-16T11:46:22.903Z,4.93
2023-03-16T11:49:00.208Z,4.00
2023-03-16T11:51:41.097Z,5.70
2023-03-16T11:54:29.515Z,3.35
2023-03-16T11:57:27.469Z,2.45
2023-03-16T12:00:03.496Z,4.60
2023-03-16T12:03:02.949Z,4.85
2023-03-16T12:06:05.663Z,2.90
2023-03-16T12:08:57.759Z,4.88
2023-03-16T12:11:32.345Z,4.03
2023-03-16T12:14:15.952Z,4.28
2023-03-16T12:17:02.894Z,4.88
2023-03-16T12:19:55.273Z,2.97
2023-03-16T12:23:08.153Z,5.88
2023-03-16T12:25:39.746Z,5.20
2023-03-16T12:28:14.578Z,5.38
2023-03-16T12:31:03.592Z,4.38
2023-03-16T12:33:48.778Z,3.15
2023-03-16T12:36:40.334Z,3.60
2023-03-16T12:39:22.181Z,5.60
2023-03-16T12:41:54.802Z,5.38
2023-03-16T12:44:57.481Z,4.25
2023-03-16T12:47:50.783Z,3.25
2023-03-16T12:50:20.048Z,4.40
2023-03-16T12:52:49.952Z,5.20
2023-03-16T12:55:25.185Z,3.70
2023-03-16T12:58:00.600Z,4.30
2023-03-16T13:00:58.457Z,4.22
2023-03-16T13:03:26.883Z,5.20
2023-03-16T13:05:59.047Z,3.67
2023-03-16T13:08:27.991Z,4.88
2023-03-16T13:11:07.578Z,5.15
2023-03-16T13:13:34.710Z,4.88
2023-03-16T13:16:27.526Z,5.50
2023-03-16T13:18:55.286Z,3.80
2023-03-16T13:21:36.583Z,3.40
2023-03-16T13:24:26.242Z,4.00
2023-03-16T13:27:01.423Z,6.70
2023-03-16T13:29:31.302Z,5.32
2023-03-16T13:32:03.131Z,4.18
2023-03-16T13:34:33.561Z,5.53
2023-03-16T13:37:01.941Z,5.03
2023-03-16T13:39:31.230Z,5.40
2023-03-16T13:42:02.403Z,4.50
2023-03-16T13:44:30.421Z,5.75
2023-03-16T13:46:58.265Z,5.22
2023-03-16T13:49:25.308Z,5.07
2023-03-16T13:51:52.839Z,5.05
2023-03-16T13:54:24.338Z,6.32
2023-03-16T13:56:53.270Z,6.32
2023-03-16T13:59:22.299Z,5.43
2023-03-16T14:01:58.150Z,5.75
2023-03-16T14:04:31.963Z,5.50
2023-03-16T14:07:02.093Z,4.80
2023-03-16T14:09:33.462Z,3.08
2023-03-16T14:12:00.904Z,3.70
2023-03-16T14:14:37.511Z,5.35
2023-03-16T14:17:14.383Z,4.93
2023-03-16T14:19:45.907Z,5.65
2023-03-16T14:22:23.713Z,5.03
2023-03-16T14:24:59.386Z,5.65
2023-03-16T14:27:35.601Z,5.15
2023-03-16T14:30:30.488Z,5.35
2023-03-16T14:33:00.671Z,5.93
2023-03-16T14:35:33.236Z,4.85
2023-03-16T14:38:25.063Z,5.63
2023-03-16T14:40:57.911Z,4.80
2023-03-16T14:43:31.270Z,5.53
2023-03-16T14:45:59.887Z,7.40
2023-03-16T14:48:28.554Z,6.70
2023-03-16T14:50:58.961Z,5.00
2023-03-16T14:53:28.669Z,5.30
2023-03-16T14:55:59.764Z,3.72
2023-03-16T14:58:27.089Z,3.42
2023-03-16T15:00:54.933Z,4.03
2023-03-16T15:03:30.752Z,4.85
2023-03-16T15:05:57.806Z,5.22
2023-03-16T15:08:28.776Z,4.32
2023-03-16T15:11:01.017Z,6.38
2023-03-16T15:13:40.028Z,6.57
2023-03-16T15:16:11.699Z,5.05
2023-03-16T15:18:42.109Z,5.15
2023-03-16T15:21:20.746Z,4.68
2023-03-16T15:23:48.430Z,4.10
2023-03-16T15:26:24.839Z,4.60
2023-03-16T15:28:52.285Z,3.38
2023-03-16T15:31:19.354Z,3.10
2023-03-16T15:33:46.628Z,4.55
2023-03-16T15:36:19.253Z,6.70
2023-03-16T15:38:48.640Z,5.72
2023-03-16T15:41:16.427Z,7.55
2023-03-16T15:43:45.821Z,6.18
2023-03-16T15:46:14.018Z,3.10
2023-03-16T15:48:41.546Z,3.63
2023-03-16T15:51:17.216Z,3.33
2023-03-16T15:53:50.030Z,2.55
2023-03-16T15:56:22.279Z,3.75
2023-03-16T15:58:50.892Z,3.42
2023-03-16T16:01:23.245Z,3.17
2023-03-16T16:03:51.798Z,3.10
2023-03-16T16:06:19.170Z,3.85
2023-03-16T16:08:46.581Z,4.40
2023-03-16T16:11:26.581Z,4.28
2023-03-16T16:13:56.802Z,5.35
2023-03-16T16:16:27.630Z,3.25
2023-03-16T16:18:55.378Z,3.40
2023-03-16T16:21:33.195Z,5.72
2023-03-16T16:24:03.686Z,6.20
2023-03-16T16:26:50.092Z,4.75
2023-03-16T16:29:27.602Z,4.72
2023-03-16T16:31:56.560Z,4.80
2023-03-16T16:34:26.024Z,5.43
2023-03-16T16:36:55.936Z,3.10
2023-03-16T16:39:24.478Z,5.55
2023-03-16T16:41:55.080Z,3.93
2023-03-16T16:44:28.186Z,4.87
2023-03-16T16:46:55.864Z,6.03
2023-03-16T16:49:24.808Z,2.47
2023-03-16T16:51:53.008Z,3.50
2023-03-16T16:54:22.223Z,4.00
2023-03-16T16:56:54.206Z,6.53
2023-03-16T16:59:34.464Z,6.00
2023-03-16T17:02:04.043Z,4.50
2023-03-16T17:04:31.072Z,4.93
2023-03-16T17:07:02.292Z,8.77
2023-03-16T17:09:30.520Z,7.03
2023-03-16T17:12:02.230Z,5.60
2023-03-16T17:14:31.529Z,3.45
2023-03-16T17:17:02.999Z,3.50
2023-03-16T17:19:30.236Z,7.00
2023-03-16T17:21:58.555Z,2.80
2023-03-16T17:24:25.811Z,4.38
2023-03-16T17:26:56.203Z,5.72
2023-03-16T17:29:27.711Z,7.22
2023-03-16T17:31:54.954Z,4.30
2023-03-16T17:34:24.669Z,4.00
2023-03-16T17:36:52.556Z,2.50
2023-03-16T17:39:27.661Z,3.05
2023-03-16T17:41:57.733Z,4.95
2023-03-16T17:44:27.368Z,6.32
2023-03-16T17:46:54.666Z,7.57
2023-03-16T17:49:23.472Z,7.07
2023-03-16T17:51:50.457Z,8.48
2023-03-16T17:54:17.577Z,6.22
2023-03-16T17:56:46.231Z,7.00
2023-03-16T17:59:18.268Z,4.70
2023-03-16T18:01:47.322Z,4.68
2023-03-16T18:04:23.473Z,5.70
2023-03-16T18:06:51.593Z,3.50
2023-03-16T18:09:20.317Z,2.90
2023-03-16T18:11:51.844Z,3.10
2023-03-16T18:14:21.518Z,6.75
2023-03-16T18:16:48.667Z,5.35
2023-03-16T18:19:24.787Z,3.38
2023-03-16T18:21:53.820Z,3.10
2023-03-16T18:24:22.480Z,3.33
2023-03-16T18:26:49.809Z,5.73
2023-03-16T18:29:16.918Z,4.75
2023-03-16T18:31:46.122Z,4.90
2023-03-16T18:34:24.023Z,4.10
2023-03-16T18:36:55.099Z,4.93
2023-03-16T18:39:22.879Z,3.33
2023-03-16T18:41:50.102Z,3.80
2023-03-16T18:44:21.818Z,3.92
2023-03-16T18:46:50.350Z,3.80
2023-03-16T18:49:37.715Z,5.78
2023-03-16T18:52:17.582Z,6.43
2023-03-16T18:54:45.898Z,5.55
2023-03-16T18:57:22.447Z,3.00
2023-03-16T18:59:50.755Z,3.25
2023-03-16T19:02:39.847Z,6.65
2023-03-16T19:05:19.813Z,3.65
2023-03-16T19:07:50.490Z,5.07
2023-03-16T19:10:26.726Z,4.05
2023-03-16T19:12:54.723Z,4.70
2023-03-16T19:15:34.008Z,5.28
2023-03-16T19:18:01.146Z,5.18
2023-03-16T19:20:30.666Z,4.13
2023-03-16T19:23:06.083Z,5.28
2023-03-16T19:25:38.424Z,4.47
2023-03-16T19:28:08.031Z,6.30
2023-03-16T19:30:36.411Z,4.78
2023-03-16T19:33:03.585Z,3.38
2023-03-16T19:35:50.332Z,4.65
2023-03-16T19:38:18.440Z,5.38
2023-03-16T19:40:47.589Z,5.50
2023-03-16T19:43:19.622Z,6.13
2023-03-16T19:45:48.378Z,4.17
2023-03-16T19:48:31.831Z,3.15
2023-03-16T19:50:59.625Z,4.00
2023-03-16T19:53:27.645Z,5.22
2023-03-16T19:55:55.105Z,4.70
2023-03-16T19:58:30.818Z,4.22
2023-03-16T20:00:59.429Z,3.53
2023-03-16T20:03:26.612Z,4.03
2023-03-16T20:05:53.880Z,4.00
2023-03-16T20:08:26.758Z,5.50
2023-03-16T20:10:59.811Z,3.70
2023-03-16T20:13:26.964Z,5.00
2023-03-16T20:15:54.138Z,5.53
2023-03-16T20:18:21.776Z,6.17
2023-03-16T20:20:48.805Z,4.00
2023-03-16T20:23:25.907Z,4.93
2023-03-16T20:26:02.089Z,5.28
2023-03-16T20:28:37.146Z,5.97
2023-03-16T20:31:08.499Z,4.87
2023-03-16T20:33:35.744Z,5.73
2023-03-16T20:36:02.837Z,5.17
2023-03-16T20:38:29.929Z,4.10
2023-03-16T20:40:57.916Z,4.33
2023-03-16T20:43:28.199Z,4.73
2023-03-16T20:45:58.118Z,5.10
2023-03-16T20:48:25.713Z,5.13
2023-03-16T20:50:54.067Z,3.40
2023-03-16T20:53:21.836Z,4.20
2023-03-16T20:55:50.591Z,6.70
2023-03-16T20:58:24.640Z,5.60
2023-03-16T21:00:56.036Z,4.37
2023-03-16T21:03:27.039Z,4.70
2023-03-16T21:05:59.357Z,4.57
2023-03-16T21:08:27.746Z,4.50
2023-03-16T21:10:56.961Z,4.27
2023-03-16T21:13:32.273Z,5.57
2023-03-16T21:16:02.546Z,4.97
2023-03-16T21:18:30.797Z,5.40
2023-03-16T21:20:59.289Z,5.10
2023-03-16T21:23:26.715Z,4.33
2023-03-16T21:25:56.929Z,6.27
2023-03-16T21:28:26.284Z,6.53
2023-03-16T21:30:56.281Z,5.83
2023-03-16T21:33:28.090Z,8.70
2023-03-16T21:35:55.164Z,6.00
2023-03-16T21:38:24.589Z,2.93
2023-03-16T21:40:51.917Z,4.90
2023-03-16T21:43:23.681Z,4.80
2023-03-16T21:45:54.245Z,4.47
2023-03-16T21:48:25.085Z,2.57
2023-03-16T21:50:53.953Z,3.93
2023-03-16T21:53:25.305Z,3.83
2023-03-16T21:55:53.557Z,4.70
2023-03-16T21:58:22.409Z,3.80
2023-03-16T22:00:51.953Z,4.30
2023-03-16T22:03:49.705Z,5.43
2023-03-16T22:06:17.356Z,4.55
2023-03-16T22:08:44.450Z,4.97
2023-03-16T22:11:23.295Z,5.13
2023-03-16T22:13:55.483Z,5.13
2023-03-16T22:16:25.023Z,4.03
2023-03-16T22:18:56.548Z,4.43
2023-03-16T22:21:38.286Z,4.73
2023-03-16T22:24:14.126Z,5.17
2023-03-16T22:26:41.617Z,3.80
2023-03-16T22:29:35.056Z,5.67
2023-03-16T22:32:12.582Z,3.87
2023-03-16T22:37:21.586Z,4.40
2023-03-16T22:39:49.893Z,5.27
2023-03-16T22:42:19.520Z,4.27
2023-03-16T22:44:46.525Z,5.00
2023-03-16T22:47:28.976Z,4.43
2023-03-16T22:49:56.193Z,3.67
2023-03-16T22:52:28.623Z,4.77
2023-03-16T22:54:56.995Z,4.30
2023-03-16T22:57:24.055Z,4.57
2023-03-16T22:59:52.465Z,4.47
2023-03-16T23:02:24.439Z,5.20
2023-03-16T23:04:51.568Z,5.00
2023-03-16T23:07:18.678Z,4.70
2023-03-16T23:09:46.375Z,4.50
2023-03-16T23:12:19.557Z,4.97
2023-03-16T23:14:46.717Z,5.20
2023-03-16T23:17:22.474Z,4.83
2023-03-16T23:19:49.697Z,4.43
2023-03-16T23:22:17.168Z,4.40
2023-03-16T23:24:44.252Z,3.77
2023-03-16T23:27:20.387Z,5.27
2023-03-16T23:29:48.240Z,4.50
2023-03-16T23:32:17.277Z,4.27
2023-03-16T23:34:44.436Z,5.20
2023-03-16T23:37:11.979Z,4.23
2023-03-16T23:39:40.042Z,4.40
2023-03-16T23:42:07.458Z,4.17
2023-03-16T23:44:34.740Z,3.40
2023-03-16T23:47:02.512Z,4.87
2023-03-16T23:49:33.102Z,4.53
2023-03-16T23:52:01.972Z,4.80
2023-03-16T23:54:31.835Z,3.80
2023-03-16T23:56:59.497Z,5.00
2023-03-16T23:59:27.605Z,5.40
